To NAV CANADA Home Page Login to a new session Search on AWWS site Feedback and Comments Disclaimer Vers la page française équivalente Tips FAQ What's new on the site To the Forecasts and Observations / NOTAM section To "File a Flight Plan" website Publications and other links Update of the User's profile FIC Telephone Numbers My Weather Data Folder Route Weather Data Regional Weather Data Local Weather Data To the Forecasts and Observations / NOTAM section
Request Generated 08/05/2015 at 04:20:06 UTC . Weather information available at that time is displayed.

METAR/TAF

If you find any discrepancies between the coded METAR/TAF and the plain language METAR/TAF please use the coded METAR/TAF. LWIS bulletins are not decoded in plain language.

VANCOUVER/VANCOUVER INTL/BC    

METAR CYVR 050400Z 31002KT 30SM FEW210 18/14 A2994 RMK CI1 TR AS SLP139 DENSITY ALT 300FT=
METAR
LOCATION
CYVR - VANCOUVER/VANCOUVER INTL/BC
DATE - TIME
05 AUGUST 2015 - 0400 UTC
WIND
310 TRUE @ 2  KNOTS
VISIBILITY
30 STAT.  MILES
RUNWAY VISUAL RANGE
WEATHER
CLOUDINESS
FEW CLOUDS (1/8 - 2/8) 21000  FT
TEMP / DEWPOINT
18 C / 14 C
ALTIMETER
29.94 IN HG
RECENT WEATHER
WIND SHEAR

METAR CYVR 050300Z 27005KT 30SM FEW070 FEW170 BKN210 19/13 A2994 RMK AC1AS1CI3 SLP138 DENSITY ALT 400FT=
METAR
LOCATION
CYVR - VANCOUVER/VANCOUVER INTL/BC
DATE - TIME
05 AUGUST 2015 - 0300 UTC
WIND
270 TRUE @ 5  KNOTS
VISIBILITY
30 STAT.  MILES
RUNWAY VISUAL RANGE
WEATHER
CLOUDINESS
FEW CLOUDS (1/8 - 2/8) 7000  FT
FEW CLOUDS (1/8 - 2/8) 17000  FT
BROKEN CLOUDS (5/8 - 7/8) 21000  FT
TEMP / DEWPOINT
19 C / 13 C
ALTIMETER
29.94 IN HG
RECENT WEATHER
WIND SHEAR

METAR CYVR 050200Z 22004KT 30SM FEW070 SCT230 21/14 A2994 RMK AC1CI3 TCU TOP N SLP138 DENSITY ALT 600FT=
METAR
LOCATION
CYVR - VANCOUVER/VANCOUVER INTL/BC
DATE - TIME
05 AUGUST 2015 - 0200 UTC
WIND
220 TRUE @ 4  KNOTS
VISIBILITY
30 STAT.  MILES
RUNWAY VISUAL RANGE
WEATHER
CLOUDINESS
FEW CLOUDS (1/8 - 2/8) 7000  FT
SCATTERED CLOUDS (3/8 - 4/8) 23000  FT
TEMP / DEWPOINT
21 C / 14 C
ALTIMETER
29.94 IN HG
RECENT WEATHER
WIND SHEAR

TAF CYVR 050238Z 0503/0606 22005KT P6SM FEW060 SCT230 BECMG 0508/0510 10008KT BKN060 BKN120 FM051400 10008KT P6SM SCT015 OVC030 TEMPO 0514/0517 4SM -SHRA BR SCT008 OVC015 FM051700 12010KT P6SM -SHRA SCT020 OVC030 TEMPO 0517/0522 5SM -SHRA BR OVC020 BECMG 0519/0521 24008KT FM052200 24008KT P6SM -SHRA BKN030 PROB30 0522/0604 VRB15G25KT 5SM TSRA BKN020CB FM060400 28010KT P6SM SCT008 BKN015 RMK NXT FCST BY 050600Z=
TAF
LOCATION

CYVR - VANCOUVER/VANCOUVER INTL/BC
VALIDITY [UTC]
05 AUG - 0238 to
06 AUG - 0600
 
TIMES
[UTC]
WIND
[DEGREES TRUE]
VISIBILITY
[STAT. MILES]
WEATHER
CLOUDINESS
[FEET AGL]
 
05 AUG - 0300 to
05 AUG - 1400
220 @ 5 KNOTS
6+
NIL
6000 FEW
23000 SCATTERED
BECOMING
05 AUG - 0800 to
05 AUG - 1000
100 @ 8 KNOTS
 
 
6000 BROKEN
12000 BROKEN
 
05 AUG - 1400 to
05 AUG - 1700
100 @ 8 KNOTS
6+
NIL
1500 SCATTERED
3000 OVERCAST
TEMPORARY CHANGES
05 AUG - 1400 to
05 AUG - 1700
 
4
LIGHT RAIN SHOWER
MIST
800 SCATTERED
1500 OVERCAST
 
05 AUG - 1700 to
05 AUG - 2200
120 @ 10 KNOTS
6+
LIGHT RAIN SHOWER
2000 SCATTERED
3000 OVERCAST
TEMPORARY CHANGES
05 AUG - 1700 to
05 AUG - 2200
 
5
LIGHT RAIN SHOWER
MIST
2000 OVERCAST
BECOMING
05 AUG - 1900 to
05 AUG - 2100
240 @ 8 KNOTS
 
 
 
 
05 AUG - 2200 to
06 AUG - 0400
240 @ 8 KNOTS
6+
LIGHT RAIN SHOWER
3000 BROKEN
30% PROBABILITY
05 AUG - 2200 to
06 AUG - 0400
VARIABLE @ 15 KNOTS
GUSTS 25 KNOTS
5
MODERATE THUNDERSTORM WITH RAIN
2000 BROKEN WITH CUMULONIMBUS
 
06 AUG - 0400 to
06 AUG - 0600
280 @ 10 KNOTS
6+
NIL
800 SCATTERED
1500 BROKEN
REMARKS
THE NEXT FORECAST WILL BE ISSUED BY 0600 UTC ON DAY 05


Your time UTC time
Weather data provided by Environment Canada and NAV CANADA